sensor_id;sensor_type;location;lat;lon;timestamp;temperature;humidity
26589;DHT22;14235;48.532;8.722;2024-02-21T00:00:14;5.50;99.90
26589;DHT22;14235;48.532;8.722;2024-02-21T00:02:40;5.90;99.90
26589;DHT22;14235;48.532;8.722;2024-02-21T00:05:05;5.80;99.90
26589;DHT22;14235;48.532;8.722;2024-02-21T00:07:31;5.80;99.90
26589;DHT22;14235;48.532;8.722;2024-02-21T00:09:56;5.70;99.90
26589;DHT22;14235;48.532;8.722;2024-02-21T00:12:22;5.70;99.90
26589;DHT22;14235;48.532;8.722;2024-02-21T00:14:48;5.80;99.90
26589;DHT22;14235;48.532;8.722;2024-02-21T00:17:13;5.40;99.90
26589;DHT22;14235;48.532;8.722;2024-02-21T00:19:39;5.60;99.90
26589;DHT22;14235;48.532;8.722;2024-02-21T00:22:04;5.70;99.90
26589;DHT22;14235;48.532;8.722;2024-02-21T00:24:30;5.70;99.90
26589;DHT22;14235;48.532;8.722;2024-02-21T00:26:55;5.70;99.90
26589;DHT22;14235;48.532;8.722;2024-02-21T00:29:21;5.60;99.90
26589;DHT22;14235;48.532;8.722;2024-02-21T00:31:48;6.10;99.90
26589;DHT22;14235;48.532;8.722;2024-02-21T00:34:14;5.60;99.90
26589;DHT22;14235;48.532;8.722;2024-02-21T00:36:40;5.80;99.90
26589;DHT22;14235;48.532;8.722;2024-02-21T00:39:05;5.70;99.90
26589;DHT22;14235;48.532;8.722;2024-02-21T00:41:31;5.70;99.90
26589;DHT22;14235;48.532;8.722;2024-02-21T00:43:57;5.80;99.90
26589;DHT22;14235;48.532;8.722;2024-02-21T00:46:23;5.80;99.90
26589;DHT22;14235;48.532;8.722;2024-02-21T00:48:48;5.80;99.90
26589;DHT22;14235;48.532;8.722;2024-02-21T00:51:15;5.50;99.90
26589;DHT22;14235;48.532;8.722;2024-02-21T00:53:41;5.80;99.90
26589;DHT22;14235;48.532;8.722;2024-02-21T00:56:07;5.80;99.90
26589;DHT22;14235;48.532;8.722;2024-02-21T00:58:32;6.90;99.90
26589;DHT22;14235;48.532;8.722;2024-02-21T01:00:58;5.70;99.90
26589;DHT22;14235;48.532;8.722;2024-02-21T01:03:24;5.80;99.90
26589;DHT22;14235;48.532;8.722;2024-02-21T01:05:49;5.80;99.90
26589;DHT22;14235;48.532;8.722;2024-02-21T01:08:15;5.80;99.90
26589;DHT22;14235;48.532;8.722;2024-02-21T01:10:40;5.80;99.90
26589;DHT22;14235;48.532;8.722;2024-02-21T01:13:06;6.00;99.90
26589;DHT22;14235;48.532;8.722;2024-02-21T01:15:32;5.70;99.90
26589;DHT22;14235;48.532;8.722;2024-02-21T01:17:58;5.80;99.90
26589;DHT22;14235;48.532;8.722;2024-02-21T01:20:24;5.70;99.90
26589;DHT22;14235;48.532;8.722;2024-02-21T01:22:49;5.90;99.90
26589;DHT22;14235;48.532;8.722;2024-02-21T01:25:15;5.70;99.90
26589;DHT22;14235;48.532;8.722;2024-02-21T01:27:41;5.90;99.90
26589;DHT22;14235;48.532;8.722;2024-02-21T01:30:07;6.00;99.90
26589;DHT22;14235;48.532;8.722;2024-02-21T01:32:33;5.80;99.90
26589;DHT22;14235;48.532;8.722;2024-02-21T01:34:59;5.60;99.90
26589;DHT22;14235;48.532;8.722;2024-02-21T01:37:24;5.70;99.90
26589;DHT22;14235;48.532;8.722;2024-02-21T01:39:50;5.70;99.90
26589;DHT22;14235;48.532;8.722;2024-02-21T01:42:16;5.60;99.90
26589;DHT22;14235;48.532;8.722;2024-02-21T01:44:41;5.70;99.90
26589;DHT22;14235;48.532;8.722;2024-02-21T01:47:07;5.70;99.90
26589;DHT22;14235;48.532;8.722;2024-02-21T01:49:33;5.80;99.90
26589;DHT22;14235;48.532;8.722;2024-02-21T01:51:59;5.70;99.90
26589;DHT22;14235;48.532;8.722;2024-02-21T01:54:25;5.70;99.90
26589;DHT22;14235;48.532;8.722;2024-02-21T01:56:54;5.60;99.90
26589;DHT22;14235;48.532;8.722;2024-02-21T01:59:21;5.60;99.90
26589;DHT22;14235;48.532;8.722;2024-02-21T02:01:47;5.70;99.90
26589;DHT22;14235;48.532;8.722;2024-02-21T02:04:13;5.70;99.90
26589;DHT22;14235;48.532;8.722;2024-02-21T02:06:40;5.70;99.90
26589;DHT22;14235;48.532;8.722;2024-02-21T02:09:06;5.70;99.90
26589;DHT22;14235;48.532;8.722;2024-02-21T02:11:32;6.50;99.90
26589;DHT22;14235;48.532;8.722;2024-02-21T02:13:58;5.60;99.90
26589;DHT22;14235;48.532;8.722;2024-02-21T02:16:24;5.70;99.90
26589;DHT22;14235;48.532;8.722;2024-02-21T02:18:49;5.70;99.90
26589;DHT22;14235;48.532;8.722;2024-02-21T02:21:29;5.60;99.90
26589;DHT22;14235;48.532;8.722;2024-02-21T02:23:57;5.70;99.90
26589;DHT22;14235;48.532;8.722;2024-02-21T02:26:24;5.70;99.90
26589;DHT22;14235;48.532;8.722;2024-02-21T02:28:49;5.80;99.90
26589;DHT22;14235;48.532;8.722;2024-02-21T02:31:15;5.90;99.90
26589;DHT22;14235;48.532;8.722;2024-02-21T02:33:43;5.70;99.90
26589;DHT22;14235;48.532;8.722;2024-02-21T02:36:09;5.60;99.90
26589;DHT22;14235;48.532;8.722;2024-02-21T02:38:35;5.70;99.90
26589;DHT22;14235;48.532;8.722;2024-02-21T02:41:00;5.50;99.90
26589;DHT22;14235;48.532;8.722;2024-02-21T02:43:26;6.60;99.90
26589;DHT22;14235;48.532;8.722;2024-02-21T02:45:51;5.80;99.90
26589;DHT22;14235;48.532;8.722;2024-02-21T02:48:17;5.70;99.90
26589;DHT22;14235;48.532;8.722;2024-02-21T02:50:43;6.20;99.90
26589;DHT22;14235;48.532;8.722;2024-02-21T02:53:09;5.70;99.90
26589;DHT22;14235;48.532;8.722;2024-02-21T02:55:34;5.80;99.90
26589;DHT22;14235;48.532;8.722;2024-02-21T02:58:00;5.80;99.90
26589;DHT22;14235;48.532;8.722;2024-02-21T03:00:26;5.90;99.90
26589;DHT22;14235;48.532;8.722;2024-02-21T03:02:52;5.80;99.90
26589;DHT22;14235;48.532;8.722;2024-02-21T03:05:21;5.80;99.90
26589;DHT22;14235;48.532;8.722;2024-02-21T03:07:48;5.80;99.90
26589;DHT22;14235;48.532;8.722;2024-02-21T03:10:14;5.90;99.90
26589;DHT22;14235;48.532;8.722;2024-02-21T03:12:42;5.90;99.90
26589;DHT22;14235;48.532;8.722;2024-02-21T03:15:08;5.90;99.90
26589;DHT22;14235;48.532;8.722;2024-02-21T03:17:33;6.10;99.90
26589;DHT22;14235;48.532;8.722;2024-02-21T03:20:03;6.00;99.90
26589;DHT22;14235;48.532;8.722;2024-02-21T03:22:35;6.00;99.90
26589;DHT22;14235;48.532;8.722;2024-02-21T03:25:00;5.90;99.90
26589;DHT22;14235;48.532;8.722;2024-02-21T03:27:26;5.80;99.90
26589;DHT22;14235;48.532;8.722;2024-02-21T03:29:52;5.70;99.90
26589;DHT22;14235;48.532;8.722;2024-02-21T03:32:17;5.80;99.90
26589;DHT22;14235;48.532;8.722;2024-02-21T03:34:43;5.60;99.90
26589;DHT22;14235;48.532;8.722;2024-02-21T03:37:08;5.70;99.90
26589;DHT22;14235;48.532;8.722;2024-02-21T03:39:34;5.70;99.90
26589;DHT22;14235;48.532;8.722;2024-02-21T03:41:59;5.70;99.90
26589;DHT22;14235;48.532;8.722;2024-02-21T03:44:32;5.70;99.90
26589;DHT22;14235;48.532;8.722;2024-02-21T03:47:02;5.90;99.90
26589;DHT22;14235;48.532;8.722;2024-02-21T03:49:27;5.80;99.90
26589;DHT22;14235;48.532;8.722;2024-02-21T03:51:54;5.60;99.90
26589;DHT22;14235;48.532;8.722;2024-02-21T03:54:19;5.70;99.90
26589;DHT22;14235;48.532;8.722;2024-02-21T03:56:45;5.60;99.90
26589;DHT22;14235;48.532;8.722;2024-02-21T03:59:13;5.70;99.90
26589;DHT22;14235;48.532;8.722;2024-02-21T04:01:38;5.70;99.90
26589;DHT22;14235;48.532;8.722;2024-02-21T04:04:04;5.70;99.90
26589;DHT22;14235;48.532;8.722;2024-02-21T04:06:30;5.50;99.90
26589;DHT22;14235;48.532;8.722;2024-02-21T04:08:56;5.70;99.90
26589;DHT22;14235;48.532;8.722;2024-02-21T04:11:22;5.80;99.90
26589;DHT22;14235;48.532;8.722;2024-02-21T04:13:47;5.60;99.90
26589;DHT22;14235;48.532;8.722;2024-02-21T04:16:16;5.70;99.90
26589;DHT22;14235;48.532;8.722;2024-02-21T04:18:42;5.60;99.90
26589;DHT22;14235;48.532;8.722;2024-02-21T04:21:08;5.60;99.90
26589;DHT22;14235;48.532;8.722;2024-02-21T04:23:34;5.60;99.90
26589;DHT22;14235;48.532;8.722;2024-02-21T04:26:00;5.60;99.90
26589;DHT22;14235;48.532;8.722;2024-02-21T04:28:25;5.60;99.90
26589;DHT22;14235;48.532;8.722;2024-02-21T04:30:51;5.60;99.90
26589;DHT22;14235;48.532;8.722;2024-02-21T04:33:16;5.50;99.90
26589;DHT22;14235;48.532;8.722;2024-02-21T04:35:42;6.00;99.90
26589;DHT22;14235;48.532;8.722;2024-02-21T04:38:08;7.00;99.90
26589;DHT22;14235;48.532;8.722;2024-02-21T04:40:33;5.50;99.90
26589;DHT22;14235;48.532;8.722;2024-02-21T04:42:59;5.50;99.90
26589;DHT22;14235;48.532;8.722;2024-02-21T04:45:25;5.40;99.90
26589;DHT22;14235;48.532;8.722;2024-02-21T04:47:50;5.30;99.90
26589;DHT22;14235;48.532;8.722;2024-02-21T04:50:16;5.40;99.90
26589;DHT22;14235;48.532;8.722;2024-02-21T04:52:42;5.30;99.90
26589;DHT22;14235;48.532;8.722;2024-02-21T04:55:08;5.30;99.90
26589;DHT22;14235;48.532;8.722;2024-02-21T04:57:33;5.20;99.90
26589;DHT22;14235;48.532;8.722;2024-02-21T04:59:59;5.30;99.90
26589;DHT22;14235;48.532;8.722;2024-02-21T05:02:24;5.40;99.90
26589;DHT22;14235;48.532;8.722;2024-02-21T05:04:52;5.20;99.90
26589;DHT22;14235;48.532;8.722;2024-02-21T05:07:17;5.20;99.90
26589;DHT22;14235;48.532;8.722;2024-02-21T05:09:45;5.20;99.90
26589;DHT22;14235;48.532;8.722;2024-02-21T05:12:10;5.10;99.90
26589;DHT22;14235;48.532;8.722;2024-02-21T05:14:36;5.20;99.90
26589;DHT22;14235;48.532;8.722;2024-02-21T05:17:03;5.40;99.90
26589;DHT22;14235;48.532;8.722;2024-02-21T05:19:28;5.30;99.90
26589;DHT22;14235;48.532;8.722;2024-02-21T05:21:54;5.30;99.90
26589;DHT22;14235;48.532;8.722;2024-02-21T05:24:20;5.40;99.90
26589;DHT22;14235;48.532;8.722;2024-02-21T05:26:45;5.10;99.90
26589;DHT22;14235;48.532;8.722;2024-02-21T05:29:11;5.00;99.90
26589;DHT22;14235;48.532;8.722;2024-02-21T05:34:18;5.10;99.90
26589;DHT22;14235;48.532;8.722;2024-02-21T05:36:44;5.10;99.90
26589;DHT22;14235;48.532;8.722;2024-02-21T05:39:10;5.00;99.90
26589;DHT22;14235;48.532;8.722;2024-02-21T05:41:35;5.00;99.90
26589;DHT22;14235;48.532;8.722;2024-02-21T05:44:01;4.90;99.90
26589;DHT22;14235;48.532;8.722;2024-02-21T05:46:27;5.00;99.90
26589;DHT22;14235;48.532;8.722;2024-02-21T05:48:52;6.20;99.90
26589;DHT22;14235;48.532;8.722;2024-02-21T05:51:18;4.80;99.90
26589;DHT22;14235;48.532;8.722;2024-02-21T05:53:43;4.80;99.90
26589;DHT22;14235;48.532;8.722;2024-02-21T05:56:12;4.60;99.90
26589;DHT22;14235;48.532;8.722;2024-02-21T05:58:38;4.60;99.90
26589;DHT22;14235;48.532;8.722;2024-02-21T06:01:04;4.80;99.90
26589;DHT22;14235;48.532;8.722;2024-02-21T06:03:32;4.90;99.90
26589;DHT22;14235;48.532;8.722;2024-02-21T06:05:58;4.70;99.90
26589;DHT22;14235;48.532;8.722;2024-02-21T06:10:49;4.80;99.90
26589;DHT22;14235;48.532;8.722;2024-02-21T06:13:17;4.70;99.90
26589;DHT22;14235;48.532;8.722;2024-02-21T06:15:43;4.60;99.90
26589;DHT22;14235;48.532;8.722;2024-02-21T06:18:08;4.60;99.90
26589;DHT22;14235;48.532;8.722;2024-02-21T06:20:34;4.60;99.90
26589;DHT22;14235;48.532;8.722;2024-02-21T06:23:01;5.80;99.90
26589;DHT22;14235;48.532;8.722;2024-02-21T06:25:27;4.80;99.90
26589;DHT22;14235;48.532;8.722;2024-02-21T06:27:52;4.60;99.90
26589;DHT22;14235;48.532;8.722;2024-02-21T06:30:18;4.70;99.90
26589;DHT22;14235;48.532;8.722;2024-02-21T06:32:43;4.70;99.90
26589;DHT22;14235;48.532;8.722;2024-02-21T06:35:09;4.70;99.90
26589;DHT22;14235;48.532;8.722;2024-02-21T06:37:34;4.60;99.90
26589;DHT22;14235;48.532;8.722;2024-02-21T06:40:00;4.50;99.90
26589;DHT22;14235;48.532;8.722;2024-02-21T06:42:26;4.60;99.90
26589;DHT22;14235;48.532;8.722;2024-02-21T06:44:51;4.60;99.90
26589;DHT22;14235;48.532;8.722;2024-02-21T06:47:17;4.60;99.90
26589;DHT22;14235;48.532;8.722;2024-02-21T06:49:43;4.80;99.90
26589;DHT22;14235;48.532;8.722;2024-02-21T06:52:08;6.00;99.90
26589;DHT22;14235;48.532;8.722;2024-02-21T06:54:34;4.50;99.90
26589;DHT22;14235;48.532;8.722;2024-02-21T06:56:59;4.60;99.90
26589;DHT22;14235;48.532;8.722;2024-02-21T06:59:25;4.60;99.90
26589;DHT22;14235;48.532;8.722;2024-02-21T07:01:54;4.50;99.90
26589;DHT22;14235;48.532;8.722;2024-02-21T07:04:21;4.50;99.90
26589;DHT22;14235;48.532;8.722;2024-02-21T07:06:46;4.50;99.90
26589;DHT22;14235;48.532;8.722;2024-02-21T07:09:12;4.50;99.90
26589;DHT22;14235;48.532;8.722;2024-02-21T07:11:37;4.50;99.90
26589;DHT22;14235;48.532;8.722;2024-02-21T07:14:03;4.50;99.90
26589;DHT22;14235;48.532;8.722;2024-02-21T07:16:28;4.50;99.90
26589;DHT22;14235;48.532;8.722;2024-02-21T07:18:55;4.60;99.90
26589;DHT22;14235;48.532;8.722;2024-02-21T07:21:21;4.50;99.90
26589;DHT22;14235;48.532;8.722;2024-02-21T07:23:46;4.50;99.90
26589;DHT22;14235;48.532;8.722;2024-02-21T07:26:12;4.30;99.90
26589;DHT22;14235;48.532;8.722;2024-02-21T07:28:37;4.50;99.90
26589;DHT22;14235;48.532;8.722;2024-02-21T07:31:03;4.50;99.90
26589;DHT22;14235;48.532;8.722;2024-02-21T07:33:29;4.60;99.90
26589;DHT22;14235;48.532;8.722;2024-02-21T07:35:56;4.60;99.90
26589;DHT22;14235;48.532;8.722;2024-02-21T07:38:21;4.70;99.90
26589;DHT22;14235;48.532;8.722;2024-02-21T07:40:47;4.90;99.90
26589;DHT22;14235;48.532;8.722;2024-02-21T07:43:13;4.80;99.90
26589;DHT22;14235;48.532;8.722;2024-02-21T07:45:39;4.90;99.90
26589;DHT22;14235;48.532;8.722;2024-02-21T07:48:05;5.00;99.90
26589;DHT22;14235;48.532;8.722;2024-02-21T07:50:31;5.10;99.90
26589;DHT22;14235;48.532;8.722;2024-02-21T07:52:57;5.10;99.90
26589;DHT22;14235;48.532;8.722;2024-02-21T07:55:22;5.10;99.90
26589;DHT22;14235;48.532;8.722;2024-02-21T07:57:48;5.10;99.90
26589;DHT22;14235;48.532;8.722;2024-02-21T08:00:15;5.10;99.90
26589;DHT22;14235;48.532;8.722;2024-02-21T08:02:54;5.20;99.90
26589;DHT22;14235;48.532;8.722;2024-02-21T08:05:19;5.70;99.90
26589;DHT22;14235;48.532;8.722;2024-02-21T08:07:45;5.30;99.90
26589;DHT22;14235;48.532;8.722;2024-02-21T08:10:10;5.30;99.90
26589;DHT22;14235;48.532;8.722;2024-02-21T08:12:36;8.10;99.90
26589;DHT22;14235;48.532;8.722;2024-02-21T08:15:02;5.30;99.90
26589;DHT22;14235;48.532;8.722;2024-02-21T08:17:33;5.50;99.90
26589;DHT22;14235;48.532;8.722;2024-02-21T08:19:59;5.30;99.90
26589;DHT22;14235;48.532;8.722;2024-02-21T08:22:24;5.50;99.90
26589;DHT22;14235;48.532;8.722;2024-02-21T08:24:50;5.50;99.90
26589;DHT22;14235;48.532;8.722;2024-02-21T08:27:15;5.50;99.90
26589;DHT22;14235;48.532;8.722;2024-02-21T08:29:41;5.70;99.90
26589;DHT22;14235;48.532;8.722;2024-02-21T08:32:06;5.80;99.90
26589;DHT22;14235;48.532;8.722;2024-02-21T08:34:32;5.90;99.90
26589;DHT22;14235;48.532;8.722;2024-02-21T08:36:59;6.30;99.90
26589;DHT22;14235;48.532;8.722;2024-02-21T08:39:25;5.90;99.90
26589;DHT22;14235;48.532;8.722;2024-02-21T08:41:51;6.00;99.90
26589;DHT22;14235;48.532;8.722;2024-02-21T08:44:17;6.00;99.90
26589;DHT22;14235;48.532;8.722;2024-02-21T08:46:42;6.10;99.90
26589;DHT22;14235;48.532;8.722;2024-02-21T08:49:09;6.90;99.90
26589;DHT22;14235;48.532;8.722;2024-02-21T08:51:35;6.20;99.90
26589;DHT22;14235;48.532;8.722;2024-02-21T08:54:00;6.70;99.90
26589;DHT22;14235;48.532;8.722;2024-02-21T08:56:27;7.80;99.90
26589;DHT22;14235;48.532;8.722;2024-02-21T08:58:52;6.50;99.90
26589;DHT22;14235;48.532;8.722;2024-02-21T09:01:18;6.60;99.90
26589;DHT22;14235;48.532;8.722;2024-02-21T09:03:43;6.80;99.90
26589;DHT22;14235;48.532;8.722;2024-02-21T09:06:10;6.70;99.90
26589;DHT22;14235;48.532;8.722;2024-02-21T09:08:36;6.70;99.90
26589;DHT22;14235;48.532;8.722;2024-02-21T09:11:01;6.90;99.90
26589;DHT22;14235;48.532;8.722;2024-02-21T09:13:27;7.00;99.90
26589;DHT22;14235;48.532;8.722;2024-02-21T09:15:53;6.90;99.90
26589;DHT22;14235;48.532;8.722;2024-02-21T09:18:18;8.30;99.90
26589;DHT22;14235;48.532;8.722;2024-02-21T09:20:44;7.00;99.90
26589;DHT22;14235;48.532;8.722;2024-02-21T09:23:10;7.10;99.90
26589;DHT22;14235;48.532;8.722;2024-02-21T09:25:36;7.00;99.90
26589;DHT22;14235;48.532;8.722;2024-02-21T09:28:02;7.30;99.90
26589;DHT22;14235;48.532;8.722;2024-02-21T09:30:28;7.30;99.90
26589;DHT22;14235;48.532;8.722;2024-02-21T09:32:54;7.20;99.90
26589;DHT22;14235;48.532;8.722;2024-02-21T09:35:20;7.30;99.90
26589;DHT22;14235;48.532;8.722;2024-02-21T09:37:48;7.20;99.90
26589;DHT22;14235;48.532;8.722;2024-02-21T09:40:15;7.30;99.90
26589;DHT22;14235;48.532;8.722;2024-02-21T09:42:42;7.40;99.90
26589;DHT22;14235;48.532;8.722;2024-02-21T09:45:23;8.40;99.90
26589;DHT22;14235;48.532;8.722;2024-02-21T09:50:53;7.60;99.90
26589;DHT22;14235;48.532;8.722;2024-02-21T09:53:20;7.50;99.90
26589;DHT22;14235;48.532;8.722;2024-02-21T09:55:48;7.60;99.90
26589;DHT22;14235;48.532;8.722;2024-02-21T09:58:14;7.90;99.90
26589;DHT22;14235;48.532;8.722;2024-02-21T10:00:39;7.80;99.90
26589;DHT22;14235;48.532;8.722;2024-02-21T10:03:05;7.90;99.90
26589;DHT22;14235;48.532;8.722;2024-02-21T10:05:37;8.60;99.90
26589;DHT22;14235;48.532;8.722;2024-02-21T10:08:04;8.30;99.90
26589;DHT22;14235;48.532;8.722;2024-02-21T10:10:41;8.30;99.90
26589;DHT22;14235;48.532;8.722;2024-02-21T10:13:07;8.70;99.90
26589;DHT22;14235;48.532;8.722;2024-02-21T10:15:33;8.20;99.90
26589;DHT22;14235;48.532;8.722;2024-02-21T10:18:00;9.60;99.90
26589;DHT22;14235;48.532;8.722;2024-02-21T10:20:26;8.60;99.90
26589;DHT22;14235;48.532;8.722;2024-02-21T10:23:02;8.50;99.90
26589;DHT22;14235;48.532;8.722;2024-02-21T10:25:29;8.60;99.90
26589;DHT22;14235;48.532;8.722;2024-02-21T10:27:56;8.40;99.90
26589;DHT22;14235;48.532;8.722;2024-02-21T10:30:21;8.50;99.90
26589;DHT22;14235;48.532;8.722;2024-02-21T10:32:51;8.70;99.90
26589;DHT22;14235;48.532;8.722;2024-02-21T10:35:31;8.70;99.90
26589;DHT22;14235;48.532;8.722;2024-02-21T10:37:57;8.70;99.90
26589;DHT22;14235;48.532;8.722;2024-02-21T10:40:24;8.90;99.90
26589;DHT22;14235;48.532;8.722;2024-02-21T10:42:56;9.30;99.90
26589;DHT22;14235;48.532;8.722;2024-02-21T10:45:24;10.00;99.90
26589;DHT22;14235;48.532;8.722;2024-02-21T10:47:56;9.20;99.90
26589;DHT22;14235;48.532;8.722;2024-02-21T10:50:30;10.20;99.90
26589;DHT22;14235;48.532;8.722;2024-02-21T10:53:23;9.30;99.90
26589;DHT22;14235;48.532;8.722;2024-02-21T10:56:01;9.40;99.90
26589;DHT22;14235;48.532;8.722;2024-02-21T10:58:32;9.50;99.90
26589;DHT22;14235;48.532;8.722;2024-02-21T11:00:58;9.60;99.90
26589;DHT22;14235;48.532;8.722;2024-02-21T11:03:25;10.80;99.90
26589;DHT22;14235;48.532;8.722;2024-02-21T11:05:51;9.80;99.90
26589;DHT22;14235;48.532;8.722;2024-02-21T11:08:17;11.40;99.90
26589;DHT22;14235;48.532;8.722;2024-02-21T11:10:46;10.10;99.90
26589;DHT22;14235;48.532;8.722;2024-02-21T11:13:11;10.20;99.90
26589;DHT22;14235;48.532;8.722;2024-02-21T11:15:38;10.80;99.90
26589;DHT22;14235;48.532;8.722;2024-02-21T11:18:05;9.90;99.90
26589;DHT22;14235;48.532;8.722;2024-02-21T11:20:34;9.90;99.90
26589;DHT22;14235;48.532;8.722;2024-02-21T11:23:00;10.10;99.90
26589;DHT22;14235;48.532;8.722;2024-02-21T11:25:26;11.30;99.90
26589;DHT22;14235;48.532;8.722;2024-02-21T11:28:02;10.00;99.90
26589;DHT22;14235;48.532;8.722;2024-02-21T11:30:32;10.10;99.90
26589;DHT22;14235;48.532;8.722;2024-02-21T11:33:06;10.10;99.90
26589;DHT22;14235;48.532;8.722;2024-02-21T11:35:36;10.20;99.90
26589;DHT22;14235;48.532;8.722;2024-02-21T11:38:12;11.60;99.90
26589;DHT22;14235;48.532;8.722;2024-02-21T11:40:45;11.60;99.90
26589;DHT22;14235;48.532;8.722;2024-02-21T11:43:11;10.50;99.90
26589;DHT22;14235;48.532;8.722;2024-02-21T11:45:36;11.00;99.90
26589;DHT22;14235;48.532;8.722;2024-02-21T11:48:04;10.80;99.90
26589;DHT22;14235;48.532;8.722;2024-02-21T11:50:31;10.60;99.90
26589;DHT22;14235;48.532;8.722;2024-02-21T11:52:57;11.20;99.90
26589;DHT22;14235;48.532;8.722;2024-02-21T11:55:23;10.70;99.90
26589;DHT22;14235;48.532;8.722;2024-02-21T11:57:49;10.70;99.90
26589;DHT22;14235;48.532;8.722;2024-02-21T12:00:16;10.80;99.90
26589;DHT22;14235;48.532;8.722;2024-02-21T12:02:43;10.80;99.90
26589;DHT22;14235;48.532;8.722;2024-02-21T12:05:09;11.00;99.90
26589;DHT22;14235;48.532;8.722;2024-02-21T12:07:36;11.20;99.90
26589;DHT22;14235;48.532;8.722;2024-02-21T12:10:08;11.10;99.90
26589;DHT22;14235;48.532;8.722;2024-02-21T12:12:35;10.80;99.90
26589;DHT22;14235;48.532;8.722;2024-02-21T12:15:06;11.20;99.90
26589;DHT22;14235;48.532;8.722;2024-02-21T12:17:39;10.90;99.90
26589;DHT22;14235;48.532;8.722;2024-02-21T12:20:06;11.40;99.90
26589;DHT22;14235;48.532;8.722;2024-02-21T12:22:35;11.00;99.20
26589;DHT22;14235;48.532;8.722;2024-02-21T12:25:04;11.10;99.40
26589;DHT22;14235;48.532;8.722;2024-02-21T12:27:40;11.00;99.80
26589;DHT22;14235;48.532;8.722;2024-02-21T12:30:06;10.90;99.60
26589;DHT22;14235;48.532;8.722;2024-02-21T12:32:35;11.00;99.00
26589;DHT22;14235;48.532;8.722;2024-02-21T12:35:01;11.40;99.10
26589;DHT22;14235;48.532;8.722;2024-02-21T12:37:28;11.10;98.80
26589;DHT22;14235;48.532;8.722;2024-02-21T12:39:54;11.10;99.00
26589;DHT22;14235;48.532;8.722;2024-02-21T12:42:19;12.70;99.80
26589;DHT22;14235;48.532;8.722;2024-02-21T12:44:45;11.00;98.90
26589;DHT22;14235;48.532;8.722;2024-02-21T12:47:11;11.10;99.10
26589;DHT22;14235;48.532;8.722;2024-02-21T12:49:37;10.90;99.10
26589;DHT22;14235;48.532;8.722;2024-02-21T12:52:03;11.30;98.10
26589;DHT22;14235;48.532;8.722;2024-02-21T12:54:29;11.30;97.40
26589;DHT22;14235;48.532;8.722;2024-02-21T12:56:55;11.90;97.50
26589;DHT22;14235;48.532;8.722;2024-02-21T12:59:21;11.20;96.80
26589;DHT22;14235;48.532;8.722;2024-02-21T13:01:47;12.10;96.90
26589;DHT22;14235;48.532;8.722;2024-02-21T13:04:12;11.90;97.40
26589;DHT22;14235;48.532;8.722;2024-02-21T13:06:38;11.80;96.00
26589;DHT22;14235;48.532;8.722;2024-02-21T13:09:03;10.90;95.50
26589;DHT22;14235;48.532;8.722;2024-02-21T13:11:34;12.10;96.20
26589;DHT22;14235;48.532;8.722;2024-02-21T13:13:59;11.10;95.30
26589;DHT22;14235;48.532;8.722;2024-02-21T13:16:25;10.80;94.60
26589;DHT22;14235;48.532;8.722;2024-02-21T13:18:51;11.10;95.20
26589;DHT22;14235;48.532;8.722;2024-02-21T13:21:17;11.10;95.20
26589;DHT22;14235;48.532;8.722;2024-02-21T13:23:42;11.20;95.40
26589;DHT22;14235;48.532;8.722;2024-02-21T13:26:09;11.70;96.00
26589;DHT22;14235;48.532;8.722;2024-02-21T13:28:35;11.20;95.80
26589;DHT22;14235;48.532;8.722;2024-02-21T13:31:01;12.00;96.00
26589;DHT22;14235;48.532;8.722;2024-02-21T13:33:26;10.90;95.90
26589;DHT22;14235;48.532;8.722;2024-02-21T13:35:54;11.20;96.00
26589;DHT22;14235;48.532;8.722;2024-02-21T13:38:19;10.80;95.20
26589;DHT22;14235;48.532;8.722;2024-02-21T13:40:45;11.20;95.70
26589;DHT22;14235;48.532;8.722;2024-02-21T13:43:11;11.30;96.20
26589;DHT22;14235;48.532;8.722;2024-02-21T13:45:37;10.90;96.00
26589;DHT22;14235;48.532;8.722;2024-02-21T13:48:04;11.50;96.40
26589;DHT22;14235;48.532;8.722;2024-02-21T13:50:31;11.40;96.20
26589;DHT22;14235;48.532;8.722;2024-02-21T13:52:57;13.00;96.80
26589;DHT22;14235;48.532;8.722;2024-02-21T13:55:23;11.30;96.10
26589;DHT22;14235;48.532;8.722;2024-02-21T13:57:52;11.40;96.30
26589;DHT22;14235;48.532;8.722;2024-02-21T14:00:18;11.30;96.10
26589;DHT22;14235;48.532;8.722;2024-02-21T14:02:44;11.30;96.10
26589;DHT22;14235;48.532;8.722;2024-02-21T14:05:10;11.30;96.20
26589;DHT22;14235;48.532;8.722;2024-02-21T14:07:36;11.30;96.40
26589;DHT22;14235;48.532;8.722;2024-02-21T14:10:02;11.30;96.60
26589;DHT22;14235;48.532;8.722;2024-02-21T14:12:29;11.30;97.10
26589;DHT22;14235;48.532;8.722;2024-02-21T14:14:54;11.20;97.20
26589;DHT22;14235;48.532;8.722;2024-02-21T14:17:23;11.30;98.00
26589;DHT22;14235;48.532;8.722;2024-02-21T14:19:50;11.80;98.60
26589;DHT22;14235;48.532;8.722;2024-02-21T14:22:17;11.40;97.30
26589;DHT22;14235;48.532;8.722;2024-02-21T14:24:42;11.00;97.30
26589;DHT22;14235;48.532;8.722;2024-02-21T14:27:08;11.20;97.90
26589;DHT22;14235;48.532;8.722;2024-02-21T14:29:34;11.10;98.30
26589;DHT22;14235;48.532;8.722;2024-02-21T14:31:59;11.10;97.20
26589;DHT22;14235;48.532;8.722;2024-02-21T14:34:25;11.10;97.20
26589;DHT22;14235;48.532;8.722;2024-02-21T14:36:51;11.10;96.00
26589;DHT22;14235;48.532;8.722;2024-02-21T14:39:17;11.20;96.30
26589;DHT22;14235;48.532;8.722;2024-02-21T14:41:43;10.80;96.70
26589;DHT22;14235;48.532;8.722;2024-02-21T14:44:09;11.20;96.40
26589;DHT22;14235;48.532;8.722;2024-02-21T14:46:35;11.20;95.80
26589;DHT22;14235;48.532;8.722;2024-02-21T14:49:01;11.20;95.80
26589;DHT22;14235;48.532;8.722;2024-02-21T14:51:26;11.30;95.30
26589;DHT22;14235;48.532;8.722;2024-02-21T14:53:52;11.30;95.20
26589;DHT22;14235;48.532;8.722;2024-02-21T14:56:17;11.30;95.70
26589;DHT22;14235;48.532;8.722;2024-02-21T14:58:43;11.30;95.10
26589;DHT22;14235;48.532;8.722;2024-02-21T15:01:09;11.30;95.40
26589;DHT22;14235;48.532;8.722;2024-02-21T15:03:35;11.20;95.50
26589;DHT22;14235;48.532;8.722;2024-02-21T15:06:01;11.30;95.80
26589;DHT22;14235;48.532;8.722;2024-02-21T15:08:27;11.40;95.80
26589;DHT22;14235;48.532;8.722;2024-02-21T15:10:53;11.40;96.50
26589;DHT22;14235;48.532;8.722;2024-02-21T15:13:19;11.80;96.80
26589;DHT22;14235;48.532;8.722;2024-02-21T15:15:46;11.30;95.90
26589;DHT22;14235;48.532;8.722;2024-02-21T15:18:16;11.40;96.00
26589;DHT22;14235;48.532;8.722;2024-02-21T15:20:42;11.40;96.00
26589;DHT22;14235;48.532;8.722;2024-02-21T15:23:07;11.40;95.40
26589;DHT22;14235;48.532;8.722;2024-02-21T15:25:33;11.40;96.30
26589;DHT22;14235;48.532;8.722;2024-02-21T15:27:59;11.30;96.20
26589;DHT22;14235;48.532;8.722;2024-02-21T15:30:25;11.30;96.70
26589;DHT22;14235;48.532;8.722;2024-02-21T15:32:50;11.30;97.10
26589;DHT22;14235;48.532;8.722;2024-02-21T15:35:16;11.40;97.30
26589;DHT22;14235;48.532;8.722;2024-02-21T15:37:41;11.10;97.60
26589;DHT22;14235;48.532;8.722;2024-02-21T15:40:07;11.10;98.00
26589;DHT22;14235;48.532;8.722;2024-02-21T15:42:33;11.20;98.40
26589;DHT22;14235;48.532;8.722;2024-02-21T15:44:59;11.20;98.90